sensor_id;sensor_type;location;lat;lon;timestamp;temperature;humidity
53962;DHT22;39868;53.398;6.564;2022-12-07T00:01:34;7.30;81.70
53962;DHT22;39868;53.398;6.564;2022-12-07T00:04:03;7.20;81.60
53962;DHT22;39868;53.398;6.564;2022-12-07T00:06:35;7.20;81.60
53962;DHT22;39868;53.398;6.564;2022-12-07T00:09:05;7.20;81.50
53962;DHT22;39868;53.398;6.564;2022-12-07T00:11:33;7.10;81.50
53962;DHT22;39868;53.398;6.564;2022-12-07T00:14:03;7.10;81.50
53962;DHT22;39868;53.398;6.564;2022-12-07T00:16:33;7.00;81.50
53962;DHT22;39868;53.398;6.564;2022-12-07T00:19:02;7.00;81.60
53962;DHT22;39868;53.398;6.564;2022-12-07T00:21:32;7.00;81.70
53962;DHT22;39868;53.398;6.564;2022-12-07T00:24:00;7.00;82.00
53962;DHT22;39868;53.398;6.564;2022-12-07T00:26:30;7.00;82.20
53962;DHT22;39868;53.398;6.564;2022-12-07T00:29:06;7.00;82.40
53962;DHT22;39868;53.398;6.564;2022-12-07T00:31:36;7.10;82.50
53962;DHT22;39868;53.398;6.564;2022-12-07T00:34:07;7.10;82.60
53962;DHT22;39868;53.398;6.564;2022-12-07T00:36:38;7.10;82.50
53962;DHT22;39868;53.398;6.564;2022-12-07T00:39:06;7.20;82.80
53962;DHT22;39868;53.398;6.564;2022-12-07T00:41:33;7.20;83.00
53962;DHT22;39868;53.398;6.564;2022-12-07T00:44:01;7.30;83.30
53962;DHT22;39868;53.398;6.564;2022-12-07T00:46:28;7.30;83.50
53962;DHT22;39868;53.398;6.564;2022-12-07T00:48:56;7.30;83.50
53962;DHT22;39868;53.398;6.564;2022-12-07T00:51:25;7.30;83.30
53962;DHT22;39868;53.398;6.564;2022-12-07T00:53:52;7.30;83.20
53962;DHT22;39868;53.398;6.564;2022-12-07T00:58:58;7.30;82.90
53962;DHT22;39868;53.398;6.564;2022-12-07T01:01:29;7.40;82.70
53962;DHT22;39868;53.398;6.564;2022-12-07T01:03:57;7.40;82.50
53962;DHT22;39868;53.398;6.564;2022-12-07T01:06:25;7.40;82.30
53962;DHT22;39868;53.398;6.564;2022-12-07T01:08:53;7.40;82.10
53962;DHT22;39868;53.398;6.564;2022-12-07T01:11:23;7.40;81.80
53962;DHT22;39868;53.398;6.564;2022-12-07T01:13:53;7.40;81.60
53962;DHT22;39868;53.398;6.564;2022-12-07T01:16:21;7.40;81.60
53962;DHT22;39868;53.398;6.564;2022-12-07T01:18:52;7.40;81.60
53962;DHT22;39868;53.398;6.564;2022-12-07T01:21:22;7.30;81.50
53962;DHT22;39868;53.398;6.564;2022-12-07T01:23:50;7.30;81.60
53962;DHT22;39868;53.398;6.564;2022-12-07T01:26:20;7.40;81.80
53962;DHT22;39868;53.398;6.564;2022-12-07T01:28:48;7.30;81.90
53962;DHT22;39868;53.398;6.564;2022-12-07T01:31:18;7.40;82.10
53962;DHT22;39868;53.398;6.564;2022-12-07T01:33:52;7.40;82.10
53962;DHT22;39868;53.398;6.564;2022-12-07T01:36:34;7.30;82.10
53962;DHT22;39868;53.398;6.564;2022-12-07T01:39:06;7.30;82.10
53962;DHT22;39868;53.398;6.564;2022-12-07T01:41:37;7.30;82.10
53962;DHT22;39868;53.398;6.564;2022-12-07T01:44:23;7.20;82.00
53962;DHT22;39868;53.398;6.564;2022-12-07T01:46:52;7.20;82.00
53962;DHT22;39868;53.398;6.564;2022-12-07T01:49:37;7.20;82.10
53962;DHT22;39868;53.398;6.564;2022-12-07T01:52:24;7.20;82.10
53962;DHT22;39868;53.398;6.564;2022-12-07T01:55:02;7.20;82.10
53962;DHT22;39868;53.398;6.564;2022-12-07T01:57:33;7.20;82.10
53962;DHT22;39868;53.398;6.564;2022-12-07T02:00:03;7.20;82.20
53962;DHT22;39868;53.398;6.564;2022-12-07T02:03:06;7.20;82.20
53962;DHT22;39868;53.398;6.564;2022-12-07T02:05:37;7.10;82.20
53962;DHT22;39868;53.398;6.564;2022-12-07T02:08:05;7.10;82.30
53962;DHT22;39868;53.398;6.564;2022-12-07T02:10:33;7.10;82.30
53962;DHT22;39868;53.398;6.564;2022-12-07T02:18:38;7.10;82.40
53962;DHT22;39868;53.398;6.564;2022-12-07T02:24:19;7.10;82.50
53962;DHT22;39868;53.398;6.564;2022-12-07T02:29:57;7.10;82.70
53962;DHT22;39868;53.398;6.564;2022-12-07T02:33:00;7.10;82.70
53962;DHT22;39868;53.398;6.564;2022-12-07T02:46:11;7.10;82.00
53962;DHT22;39868;53.398;6.564;2022-12-07T02:48:41;7.10;82.00
53962;DHT22;39868;53.398;6.564;2022-12-07T02:51:47;7.10;82.00
53962;DHT22;39868;53.398;6.564;2022-12-07T02:54:18;7.10;82.00
53962;DHT22;39868;53.398;6.564;2022-12-07T03:07:42;7.10;82.70
53962;DHT22;39868;53.398;6.564;2022-12-07T03:15:40;7.20;83.10
53962;DHT22;39868;53.398;6.564;2022-12-07T03:18:11;7.30;83.10
53962;DHT22;39868;53.398;6.564;2022-12-07T03:20:41;7.30;82.90
53962;DHT22;39868;53.398;6.564;2022-12-07T03:23:12;7.20;82.90
53962;DHT22;39868;53.398;6.564;2022-12-07T03:25:45;7.10;83.50
53962;DHT22;39868;53.398;6.564;2022-12-07T03:28:17;7.00;83.90
53962;DHT22;39868;53.398;6.564;2022-12-07T03:30:58;7.00;84.00
53962;DHT22;39868;53.398;6.564;2022-12-07T03:33:39;6.90;84.00
53962;DHT22;39868;53.398;6.564;2022-12-07T03:36:21;6.90;84.00
53962;DHT22;39868;53.398;6.564;2022-12-07T03:39:13;6.90;83.90
53962;DHT22;39868;53.398;6.564;2022-12-07T03:41:43;6.90;83.80
53962;DHT22;39868;53.398;6.564;2022-12-07T03:44:12;6.80;83.60
53962;DHT22;39868;53.398;6.564;2022-12-07T03:47:00;6.80;83.50
53962;DHT22;39868;53.398;6.564;2022-12-07T03:49:56;6.70;83.50
53962;DHT22;39868;53.398;6.564;2022-12-07T03:52:53;6.60;83.40
53962;DHT22;39868;53.398;6.564;2022-12-07T03:57:51;6.50;83.60
53962;DHT22;39868;53.398;6.564;2022-12-07T04:00:20;6.50;83.80
53962;DHT22;39868;53.398;6.564;2022-12-07T04:02:51;6.50;83.80
53962;DHT22;39868;53.398;6.564;2022-12-07T04:05:19;6.50;84.00
53962;DHT22;39868;53.398;6.564;2022-12-07T04:07:47;6.50;84.20
53962;DHT22;39868;53.398;6.564;2022-12-07T04:10:15;6.60;84.30
53962;DHT22;39868;53.398;6.564;2022-12-07T04:12:42;6.60;84.30
53962;DHT22;39868;53.398;6.564;2022-12-07T04:15:10;6.60;84.30
53962;DHT22;39868;53.398;6.564;2022-12-07T04:17:37;6.60;84.20
53962;DHT22;39868;53.398;6.564;2022-12-07T04:20:06;6.60;85.20
53962;DHT22;39868;53.398;6.564;2022-12-07T04:22:33;6.60;85.50
53962;DHT22;39868;53.398;6.564;2022-12-07T04:25:01;6.70;86.40
53962;DHT22;39868;53.398;6.564;2022-12-07T04:27:28;6.70;85.80
53962;DHT22;39868;53.398;6.564;2022-12-07T04:29:55;6.70;85.80
53962;DHT22;39868;53.398;6.564;2022-12-07T04:32:23;6.70;85.80
53962;DHT22;39868;53.398;6.564;2022-12-07T04:34:51;6.70;85.60
53962;DHT22;39868;53.398;6.564;2022-12-07T04:37:22;6.70;85.50
53962;DHT22;39868;53.398;6.564;2022-12-07T04:39:50;6.70;85.30
53962;DHT22;39868;53.398;6.564;2022-12-07T04:42:17;6.70;85.20
53962;DHT22;39868;53.398;6.564;2022-12-07T04:44:45;6.60;85.10
53962;DHT22;39868;53.398;6.564;2022-12-07T04:47:12;6.60;85.00
53962;DHT22;39868;53.398;6.564;2022-12-07T04:49:40;6.60;84.90
53962;DHT22;39868;53.398;6.564;2022-12-07T04:52:07;6.50;84.80
53962;DHT22;39868;53.398;6.564;2022-12-07T04:54:35;6.50;84.70
53962;DHT22;39868;53.398;6.564;2022-12-07T04:57:02;6.50;84.70
53962;DHT22;39868;53.398;6.564;2022-12-07T04:59:30;6.40;84.70
53962;DHT22;39868;53.398;6.564;2022-12-07T05:01:57;6.40;84.80
53962;DHT22;39868;53.398;6.564;2022-12-07T05:04:24;6.40;84.70
53962;DHT22;39868;53.398;6.564;2022-12-07T05:06:52;6.30;84.70
53962;DHT22;39868;53.398;6.564;2022-12-07T05:09:19;6.30;84.80
53962;DHT22;39868;53.398;6.564;2022-12-07T05:11:46;6.30;84.80
53962;DHT22;39868;53.398;6.564;2022-12-07T05:14:17;6.20;84.80
53962;DHT22;39868;53.398;6.564;2022-12-07T05:16:47;6.20;84.80
53962;DHT22;39868;53.398;6.564;2022-12-07T05:19:16;6.20;84.80
53962;DHT22;39868;53.398;6.564;2022-12-07T05:21:44;6.10;84.70
53962;DHT22;39868;53.398;6.564;2022-12-07T05:24:17;6.10;84.80
53962;DHT22;39868;53.398;6.564;2022-12-07T05:26:45;6.10;85.40
53962;DHT22;39868;53.398;6.564;2022-12-07T05:29:14;6.00;84.90
53962;DHT22;39868;53.398;6.564;2022-12-07T05:31:43;6.00;85.20
53962;DHT22;39868;53.398;6.564;2022-12-07T05:34:10;6.10;85.30
53962;DHT22;39868;53.398;6.564;2022-12-07T05:36:38;6.10;85.60
53962;DHT22;39868;53.398;6.564;2022-12-07T05:39:06;6.10;85.50
53962;DHT22;39868;53.398;6.564;2022-12-07T05:41:34;6.20;85.60
53962;DHT22;39868;53.398;6.564;2022-12-07T05:44:20;6.20;85.70
53962;DHT22;39868;53.398;6.564;2022-12-07T05:46:47;6.30;85.60
53962;DHT22;39868;53.398;6.564;2022-12-07T05:49:15;6.30;85.60
53962;DHT22;39868;53.398;6.564;2022-12-07T05:51:42;6.30;85.70
53962;DHT22;39868;53.398;6.564;2022-12-07T05:54:10;6.30;85.60
53962;DHT22;39868;53.398;6.564;2022-12-07T05:56:37;6.40;85.80
53962;DHT22;39868;53.398;6.564;2022-12-07T05:59:05;6.40;85.80
53962;DHT22;39868;53.398;6.564;2022-12-07T06:02:05;6.50;85.90
53962;DHT22;39868;53.398;6.564;2022-12-07T06:04:36;6.50;86.00
53962;DHT22;39868;53.398;6.564;2022-12-07T06:07:04;6.60;85.90
53962;DHT22;39868;53.398;6.564;2022-12-07T06:09:32;6.60;85.90
53962;DHT22;39868;53.398;6.564;2022-12-07T06:12:00;6.60;85.90
53962;DHT22;39868;53.398;6.564;2022-12-07T06:14:46;6.60;85.90
53962;DHT22;39868;53.398;6.564;2022-12-07T06:17:14;6.70;85.80
53962;DHT22;39868;53.398;6.564;2022-12-07T06:19:42;6.70;85.60
53962;DHT22;39868;53.398;6.564;2022-12-07T06:22:10;6.70;86.10
53962;DHT22;39868;53.398;6.564;2022-12-07T06:24:39;6.70;85.40
53962;DHT22;39868;53.398;6.564;2022-12-07T06:27:06;6.70;85.30
53962;DHT22;39868;53.398;6.564;2022-12-07T06:29:34;6.70;85.40
53962;DHT22;39868;53.398;6.564;2022-12-07T06:32:02;6.60;85.20
53962;DHT22;39868;53.398;6.564;2022-12-07T06:34:30;6.60;85.00
53962;DHT22;39868;53.398;6.564;2022-12-07T06:36:57;6.60;85.10
53962;DHT22;39868;53.398;6.564;2022-12-07T06:39:27;6.60;85.10
53962;DHT22;39868;53.398;6.564;2022-12-07T06:41:55;6.60;85.10
53962;DHT22;39868;53.398;6.564;2022-12-07T06:44:23;6.60;85.10
53962;DHT22;39868;53.398;6.564;2022-12-07T06:46:51;6.60;85.00
53962;DHT22;39868;53.398;6.564;2022-12-07T06:49:38;6.50;85.00
53962;DHT22;39868;53.398;6.564;2022-12-07T06:52:05;6.50;85.10
53962;DHT22;39868;53.398;6.564;2022-12-07T06:54:33;6.50;85.10
53962;DHT22;39868;53.398;6.564;2022-12-07T06:57:00;6.50;85.10
53962;DHT22;39868;53.398;6.564;2022-12-07T06:59:28;6.50;85.20
53962;DHT22;39868;53.398;6.564;2022-12-07T07:01:55;6.60;85.10
53962;DHT22;39868;53.398;6.564;2022-12-07T07:04:23;6.60;85.30
53962;DHT22;39868;53.398;6.564;2022-12-07T07:06:51;6.60;85.20
53962;DHT22;39868;53.398;6.564;2022-12-07T07:09:26;6.60;85.30
53962;DHT22;39868;53.398;6.564;2022-12-07T07:11:53;6.60;85.30
53962;DHT22;39868;53.398;6.564;2022-12-07T07:14:20;6.60;85.20
53962;DHT22;39868;53.398;6.564;2022-12-07T07:16:49;6.60;85.30
53962;DHT22;39868;53.398;6.564;2022-12-07T07:19:16;6.70;85.30
53962;DHT22;39868;53.398;6.564;2022-12-07T07:21:44;6.70;85.30
53962;DHT22;39868;53.398;6.564;2022-12-07T07:24:11;6.70;85.30
53962;DHT22;39868;53.398;6.564;2022-12-07T07:26:38;6.70;85.30
53962;DHT22;39868;53.398;6.564;2022-12-07T07:29:06;6.80;85.40
53962;DHT22;39868;53.398;6.564;2022-12-07T07:31:33;6.80;85.40
53962;DHT22;39868;53.398;6.564;2022-12-07T07:34:02;6.90;85.30
53962;DHT22;39868;53.398;6.564;2022-12-07T07:36:30;6.90;85.20
53962;DHT22;39868;53.398;6.564;2022-12-07T07:38:57;6.90;85.10
53962;DHT22;39868;53.398;6.564;2022-12-07T07:41:25;6.90;84.90
53962;DHT22;39868;53.398;6.564;2022-12-07T07:43:52;6.90;84.70
53962;DHT22;39868;53.398;6.564;2022-12-07T07:46:19;6.90;84.60
53962;DHT22;39868;53.398;6.564;2022-12-07T07:48:47;6.90;84.50
53962;DHT22;39868;53.398;6.564;2022-12-07T07:51:14;6.90;84.40
53962;DHT22;39868;53.398;6.564;2022-12-07T07:53:42;6.90;84.40
53962;DHT22;39868;53.398;6.564;2022-12-07T07:56:09;6.90;84.30
53962;DHT22;39868;53.398;6.564;2022-12-07T07:58:38;6.90;84.30
53962;DHT22;39868;53.398;6.564;2022-12-07T08:01:07;7.00;84.30
53962;DHT22;39868;53.398;6.564;2022-12-07T08:03:35;7.00;84.30
53962;DHT22;39868;53.398;6.564;2022-12-07T08:06:03;7.00;84.30
53962;DHT22;39868;53.398;6.564;2022-12-07T08:08:31;7.00;84.30
53962;DHT22;39868;53.398;6.564;2022-12-07T08:10:58;7.00;84.20
53962;DHT22;39868;53.398;6.564;2022-12-07T08:13:29;7.00;84.00
53962;DHT22;39868;53.398;6.564;2022-12-07T08:15:57;7.10;83.90
53962;DHT22;39868;53.398;6.564;2022-12-07T08:18:25;7.10;83.70
53962;DHT22;39868;53.398;6.564;2022-12-07T08:20:59;7.20;83.40
53962;DHT22;39868;53.398;6.564;2022-12-07T08:23:28;7.20;82.90
53962;DHT22;39868;53.398;6.564;2022-12-07T08:26:12;7.20;82.30
53962;DHT22;39868;53.398;6.564;2022-12-07T08:28:40;7.20;82.40
53962;DHT22;39868;53.398;6.564;2022-12-07T08:31:13;7.10;80.50
53962;DHT22;39868;53.398;6.564;2022-12-07T08:33:41;7.00;78.80
53962;DHT22;39868;53.398;6.564;2022-12-07T08:36:11;7.00;80.30
53962;DHT22;39868;53.398;6.564;2022-12-07T08:38:40;7.00;81.10
53962;DHT22;39868;53.398;6.564;2022-12-07T08:41:17;7.00;81.60
53962;DHT22;39868;53.398;6.564;2022-12-07T08:43:45;7.10;81.80
53962;DHT22;39868;53.398;6.564;2022-12-07T08:49:08;7.20;81.90
53962;DHT22;39868;53.398;6.564;2022-12-07T08:51:36;7.30;82.00
53962;DHT22;39868;53.398;6.564;2022-12-07T08:54:06;7.30;82.00
53962;DHT22;39868;53.398;6.564;2022-12-07T08:56:35;7.30;82.00
53962;DHT22;39868;53.398;6.564;2022-12-07T08:59:04;7.40;82.10
53962;DHT22;39868;53.398;6.564;2022-12-07T09:01:31;7.40;82.00
53962;DHT22;39868;53.398;6.564;2022-12-07T09:04:00;7.40;82.00
53962;DHT22;39868;53.398;6.564;2022-12-07T09:06:27;7.50;81.90
53962;DHT22;39868;53.398;6.564;2022-12-07T09:08:58;7.50;81.90
53962;DHT22;39868;53.398;6.564;2022-12-07T09:11:26;7.60;82.00
53962;DHT22;39868;53.398;6.564;2022-12-07T09:13:55;7.70;82.20
53962;DHT22;39868;53.398;6.564;2022-12-07T09:16:23;7.70;82.20
53962;DHT22;39868;53.398;6.564;2022-12-07T09:18:50;7.80;82.30
53962;DHT22;39868;53.398;6.564;2022-12-07T09:21:18;7.80;82.40
53962;DHT22;39868;53.398;6.564;2022-12-07T09:23:45;7.80;82.30
53962;DHT22;39868;53.398;6.564;2022-12-07T09:26:13;7.90;82.10
53962;DHT22;39868;53.398;6.564;2022-12-07T09:28:49;8.00;81.60
53962;DHT22;39868;53.398;6.564;2022-12-07T09:31:17;8.10;81.10
53962;DHT22;39868;53.398;6.564;2022-12-07T09:33:58;8.10;80.60
53962;DHT22;39868;53.398;6.564;2022-12-07T09:36:26;8.10;79.60
53962;DHT22;39868;53.398;6.564;2022-12-07T09:38:54;8.10;79.90
53962;DHT22;39868;53.398;6.564;2022-12-07T09:41:23;8.20;80.10
53962;DHT22;39868;53.398;6.564;2022-12-07T09:43:52;8.20;80.20
53962;DHT22;39868;53.398;6.564;2022-12-07T09:46:21;8.20;80.00
53962;DHT22;39868;53.398;6.564;2022-12-07T09:48:50;8.20;80.30
53962;DHT22;39868;53.398;6.564;2022-12-07T09:51:20;8.20;80.50
53962;DHT22;39868;53.398;6.564;2022-12-07T09:53:53;8.30;80.40
53962;DHT22;39868;53.398;6.564;2022-12-07T09:56:22;8.30;80.60
53962;DHT22;39868;53.398;6.564;2022-12-07T09:58:54;8.40;80.60
53962;DHT22;39868;53.398;6.564;2022-12-07T10:01:23;8.40;80.70
53962;DHT22;39868;53.398;6.564;2022-12-07T10:03:58;8.50;81.00
53962;DHT22;39868;53.398;6.564;2022-12-07T10:06:28;8.50;81.00
53962;DHT22;39868;53.398;6.564;2022-12-07T10:08:55;8.60;81.00
53962;DHT22;39868;53.398;6.564;2022-12-07T10:11:22;8.70;80.90
53962;DHT22;39868;53.398;6.564;2022-12-07T10:13:52;8.80;80.80
53962;DHT22;39868;53.398;6.564;2022-12-07T10:16:38;8.80;80.70
53962;DHT22;39868;53.398;6.564;2022-12-07T10:22:15;8.90;80.90
53962;DHT22;39868;53.398;6.564;2022-12-07T10:24:46;9.00;80.90
53962;DHT22;39868;53.398;6.564;2022-12-07T10:27:36;9.00;80.80
53962;DHT22;39868;53.398;6.564;2022-12-07T10:30:12;9.10;80.80
53962;DHT22;39868;53.398;6.564;2022-12-07T10:32:43;9.10;80.60
53962;DHT22;39868;53.398;6.564;2022-12-07T10:35:30;9.20;79.20
53962;DHT22;39868;53.398;6.564;2022-12-07T10:37:59;9.10;76.10
53962;DHT22;39868;53.398;6.564;2022-12-07T10:40:35;9.00;75.70
53962;DHT22;39868;53.398;6.564;2022-12-07T10:51:42;8.60;76.50
53962;DHT22;39868;53.398;6.564;2022-12-07T11:10:30;8.70;78.90
53962;DHT22;39868;53.398;6.564;2022-12-07T11:16:45;8.70;79.10
53962;DHT22;39868;53.398;6.564;2022-12-07T11:19:00;8.80;79.30
53962;DHT22;39868;53.398;6.564;2022-12-07T11:24:24;9.00;79.80
53962;DHT22;39868;53.398;6.564;2022-12-07T11:27:04;9.20;79.90
53962;DHT22;39868;53.398;6.564;2022-12-07T11:29:47;9.30;80.10
53962;DHT22;39868;53.398;6.564;2022-12-07T11:38:17;9.60;79.10
53962;DHT22;39868;53.398;6.564;2022-12-07T11:40:58;9.70;78.50
53962;DHT22;39868;53.398;6.564;2022-12-07T11:44:05;9.60;78.10
53962;DHT22;39868;53.398;6.564;2022-12-07T11:46:51;9.60;77.60
53962;DHT22;39868;53.398;6.564;2022-12-07T11:51:52;9.60;76.40
53962;DHT22;39868;53.398;6.564;2022-12-07T11:54:28;9.50;76.10
53962;DHT22;39868;53.398;6.564;2022-12-07T11:57:02;9.40;76.00
53962;DHT22;39868;53.398;6.564;2022-12-07T11:59:33;9.40;75.70
53962;DHT22;39868;53.398;6.564;2022-12-07T12:05:01;9.30;75.80
53962;DHT22;39868;53.398;6.564;2022-12-07T12:07:31;9.30;75.70
53962;DHT22;39868;53.398;6.564;2022-12-07T12:10:28;9.30;75.60
53962;DHT22;39868;53.398;6.564;2022-12-07T12:13:29;9.30;75.70
53962;DHT22;39868;53.398;6.564;2022-12-07T12:21:49;9.30;76.20
53962;DHT22;39868;53.398;6.564;2022-12-07T12:24:26;9.30;76.10
53962;DHT22;39868;53.398;6.564;2022-12-07T12:27:08;9.30;76.20
53962;DHT22;39868;53.398;6.564;2022-12-07T12:29:40;9.40;76.20
53962;DHT22;39868;53.398;6.564;2022-12-07T12:32:19;9.40;75.90
53962;DHT22;39868;53.398;6.564;2022-12-07T12:42:50;9.40;74.70
53962;DHT22;39868;53.398;6.564;2022-12-07T12:45:22;9.40;74.60
53962;DHT22;39868;53.398;6.564;2022-12-07T12:53:05;9.50;75.40
53962;DHT22;39868;53.398;6.564;2022-12-07T13:00:47;9.60;74.60
53962;DHT22;39868;53.398;6.564;2022-12-07T13:03:26;9.60;74.90
53962;DHT22;39868;53.398;6.564;2022-12-07T13:08:56;9.50;74.00
53962;DHT22;39868;53.398;6.564;2022-12-07T13:11:33;9.50;74.20
53962;DHT22;39868;53.398;6.564;2022-12-07T13:14:39;9.40;74.50
53962;DHT22;39868;53.398;6.564;2022-12-07T13:17:12;9.30;74.80
53962;DHT22;39868;53.398;6.564;2022-12-07T13:20:02;9.10;75.00
53962;DHT22;39868;53.398;6.564;2022-12-07T13:27:59;8.70;75.60
53962;DHT22;39868;53.398;6.564;2022-12-07T13:30:28;8.60;75.70
53962;DHT22;39868;53.398;6.564;2022-12-07T13:32:58;8.50;75.90
53962;DHT22;39868;53.398;6.564;2022-12-07T13:35:34;8.50;76.20
53962;DHT22;39868;53.398;6.564;2022-12-07T13:38:15;8.40;76.50
53962;DHT22;39868;53.398;6.564;2022-12-07T13:40:59;8.30;76.70
53962;DHT22;39868;53.398;6.564;2022-12-07T13:43:27;8.30;76.90
53962;DHT22;39868;53.398;6.564;2022-12-07T13:45:58;8.30;77.10
53962;DHT22;39868;53.398;6.564;2022-12-07T13:51:01;8.30;77.50
53962;DHT22;39868;53.398;6.564;2022-12-07T13:53:29;8.30;77.50
53962;DHT22;39868;53.398;6.564;2022-12-07T13:56:00;8.30;77.60
53962;DHT22;39868;53.398;6.564;2022-12-07T13:58:31;8.30;77.60
53962;DHT22;39868;53.398;6.564;2022-12-07T14:00:59;8.30;77.70
53962;DHT22;39868;53.398;6.564;2022-12-07T14:03:31;8.30;77.70
53962;DHT22;39868;53.398;6.564;2022-12-07T14:08:38;8.30;77.80
53962;DHT22;39868;53.398;6.564;2022-12-07T14:11:06;8.30;77.90
53962;DHT22;39868;53.398;6.564;2022-12-07T14:13:40;8.30;77.90
53962;DHT22;39868;53.398;6.564;2022-12-07T14:16:27;8.40;78.00
53962;DHT22;39868;53.398;6.564;2022-12-07T14:18:58;8.40;78.00
53962;DHT22;39868;53.398;6.564;2022-12-07T14:21:28;8.40;78.00
53962;DHT22;39868;53.398;6.564;2022-12-07T14:24:18;8.40;78.00
53962;DHT22;39868;53.398;6.564;2022-12-07T14:26:48;8.40;78.00
53962;DHT22;39868;53.398;6.564;2022-12-07T14:29:20;8.40;77.90
53962;DHT22;39868;53.398;6.564;2022-12-07T14:31:48;8.40;77.80
53962;DHT22;39868;53.398;6.564;2022-12-07T14:34:16;8.40;77.70
53962;DHT22;39868;53.398;6.564;2022-12-07T14:36:43;8.30;77.70
53962;DHT22;39868;53.398;6.564;2022-12-07T14:39:11;8.30;77.60
53962;DHT22;39868;53.398;6.564;2022-12-07T14:41:40;8.30;77.50
53962;DHT22;39868;53.398;6.564;2022-12-07T14:44:20;8.30;77.60
53962;DHT22;39868;53.398;6.564;2022-12-07T14:46:54;8.20;77.30
53962;DHT22;39868;53.398;6.564;2022-12-07T14:49:41;8.10;77.00
53962;DHT22;39868;53.398;6.564;2022-12-07T14:52:21;8.10;77.30
53962;DHT22;39868;53.398;6.564;2022-12-07T14:55:24;8.00;77.80
53962;DHT22;39868;53.398;6.564;2022-12-07T14:57:52;7.80;78.20
53962;DHT22;39868;53.398;6.564;2022-12-07T15:00:21;7.70;78.40
53962;DHT22;39868;53.398;6.564;2022-12-07T15:02:50;7.50;78.60
53962;DHT22;39868;53.398;6.564;2022-12-07T15:05:18;7.40;78.60
53962;DHT22;39868;53.398;6.564;2022-12-07T15:07:46;7.30;78.70
53962;DHT22;39868;53.398;6.564;2022-12-07T15:10:28;7.30;78.90
53962;DHT22;39868;53.398;6.564;2022-12-07T15:13:00;7.20;79.00
53962;DHT22;39868;53.398;6.564;2022-12-07T15:15:48;7.10;79.10
53962;DHT22;39868;53.398;6.564;2022-12-07T15:18:16;7.00;79.00
53962;DHT22;39868;53.398;6.564;2022-12-07T15:20:44;7.00;79.10
53962;DHT22;39868;53.398;6.564;2022-12-07T15:23:14;6.90;79.10
53962;DHT22;39868;53.398;6.564;2022-12-07T15:25:43;6.80;79.10
53962;DHT22;39868;53.398;6.564;2022-12-07T15:28:11;6.80;79.20
53962;DHT22;39868;53.398;6.564;2022-12-07T15:30:39;6.80;79.30
53962;DHT22;39868;53.398;6.564;2022-12-07T15:33:07;6.80;79.50
53962;DHT22;39868;53.398;6.564;2022-12-07T15:35:44;6.70;79.50
53962;DHT22;39868;53.398;6.564;2022-12-07T15:38:12;6.70;79.70
53962;DHT22;39868;53.398;6.564;2022-12-07T15:40:40;6.70;79.70
53962;DHT22;39868;53.398;6.564;2022-12-07T15:43:10;6.70;79.80
53962;DHT22;39868;53.398;6.564;2022-12-07T15:45:57;6.70;79.90
53962;DHT22;39868;53.398;6.564;2022-12-07T15:48:26;6.70;79.90
53962;DHT22;39868;53.398;6.564;2022-12-07T15:51:05;6.80;80.00
53962;DHT22;39868;53.398;6.564;2022-12-07T15:53:34;6.80;80.20
53962;DHT22;39868;53.398;6.564;2022-12-07T15:56:05;6.80;80.20
53962;DHT22;39868;53.398;6.564;2022-12-07T15:58:33;6.80;80.30
53962;DHT22;39868;53.398;6.564;2022-12-07T16:01:00;6.80;80.30
53962;DHT22;39868;53.398;6.564;2022-12-07T16:03:28;6.90;81.00
53962;DHT22;39868;53.398;6.564;2022-12-07T16:05:55;6.90;80.40
53962;DHT22;39868;53.398;6.564;2022-12-07T16:08:23;6.90;80.30
53962;DHT22;39868;53.398;6.564;2022-12-07T16:10:50;6.90;80.30
53962;DHT22;39868;53.398;6.564;2022-12-07T16:13:17;6.90;80.20
53962;DHT22;39868;53.398;6.564;2022-12-07T16:15:46;6.90;80.20
53962;DHT22;39868;53.398;6.564;2022-12-07T16:18:14;6.90;80.10
53962;DHT22;39868;53.398;6.564;2022-12-07T16:20:41;6.90;80.10
53962;DHT22;39868;53.398;6.564;2022-12-07T16:23:09;6.90;80.00
53962;DHT22;39868;53.398;6.564;2022-12-07T16:25:36;6.90;80.00
53962;DHT22;39868;53.398;6.564;2022-12-07T16:28:04;6.90;79.90
53962;DHT22;39868;53.398;6.564;2022-12-07T16:30:32;6.80;79.80
53962;DHT22;39868;53.398;6.564;2022-12-07T16:32:59;6.90;79.90
53962;DHT22;39868;53.398;6.564;2022-12-07T16:35:28;6.80;79.70
53962;DHT22;39868;53.398;6.564;2022-12-07T16:37:56;6.80;79.70
53962;DHT22;39868;53.398;6.564;2022-12-07T16:40:23;6.80;79.70
53962;DHT22;39868;53.398;6.564;2022-12-07T16:42:50;6.80;79.70
53962;DHT22;39868;53.398;6.564;2022-12-07T16:45:19;6.80;80.30
53962;DHT22;39868;53.398;6.564;2022-12-07T16:47:47;6.80;79.70
53962;DHT22;39868;53.398;6.564;2022-12-07T16:50:14;6.70;79.70
53962;DHT22;39868;53.398;6.564;2022-12-07T16:52:42;6.70;79.60
53962;DHT22;39868;53.398;6.564;2022-12-07T16:55:10;6.70;79.60
53962;DHT22;39868;53.398;6.564;2022-12-07T16:57:37;6.70;79.60
53962;DHT22;39868;53.398;6.564;2022-12-07T17:00:05;6.70;79.60
53962;DHT22;39868;53.398;6.564;2022-12-07T17:02:33;6.60;79.50
53962;DHT22;39868;53.398;6.564;2022-12-07T17:05:01;6.60;79.50
53962;DHT22;39868;53.398;6.564;2022-12-07T17:07:28;6.60;79.50
53962;DHT22;39868;53.398;6.564;2022-12-07T17:09:56;6.60;79.50
53962;DHT22;39868;53.398;6.564;2022-12-07T17:12:23;6.60;79.50
53962;DHT22;39868;53.398;6.564;2022-12-07T17:14:51;6.60;80.10
53962;DHT22;39868;53.398;6.564;2022-12-07T17:17:37;6.60;79.50
53962;DHT22;39868;53.398;6.564;2022-12-07T17:20:05;6.60;79.60
53962;DHT22;39868;53.398;6.564;2022-12-07T17:22:32;6.60;79.50
53962;DHT22;39868;53.398;6.564;2022-12-07T17:25:00;6.50;79.50
53962;DHT22;39868;53.398;6.564;2022-12-07T17:27:28;6.50;79.40
53962;DHT22;39868;53.398;6.564;2022-12-07T17:29:56;6.50;79.40
53962;DHT22;39868;53.398;6.564;2022-12-07T17:32:23;6.50;79.40
53962;DHT22;39868;53.398;6.564;2022-12-07T17:34:50;6.50;79.40
53962;DHT22;39868;53.398;6.564;2022-12-07T17:37:18;6.50;79.40
53962;DHT22;39868;53.398;6.564;2022-12-07T17:39:45;6.40;79.40
53962;DHT22;39868;53.398;6.564;2022-12-07T17:42:13;6.40;79.40
53962;DHT22;39868;53.398;6.564;2022-12-07T17:44:59;6.40;79.40
53962;DHT22;39868;53.398;6.564;2022-12-07T17:47:27;6.40;79.40
53962;DHT22;39868;53.398;6.564;2022-12-07T17:49:55;6.40;79.50
53962;DHT22;39868;53.398;6.564;2022-12-07T17:52:29;6.30;79.50
53962;DHT22;39868;53.398;6.564;2022-12-07T17:55:15;6.40;79.60
53962;DHT22;39868;53.398;6.564;2022-12-07T17:57:43;6.30;79.60
53962;DHT22;39868;53.398;6.564;2022-12-07T18:00:11;6.40;79.70
53962;DHT22;39868;53.398;6.564;2022-12-07T18:02:40;6.40;79.80
53962;DHT22;39868;53.398;6.564;2022-12-07T18:05:08;6.40;79.80
53962;DHT22;39868;53.398;6.564;2022-12-07T18:07:36;6.40;79.90
53962;DHT22;39868;53.398;6.564;2022-12-07T18:10:04;6.40;79.90
53962;DHT22;39868;53.398;6.564;2022-12-07T18:12:33;6.40;79.90
53962;DHT22;39868;53.398;6.564;2022-12-07T18:15:01;6.40;80.00
53962;DHT22;39868;53.398;6.564;2022-12-07T18:17:29;6.40;80.00
53962;DHT22;39868;53.398;6.564;2022-12-07T18:19:57;6.40;80.00
53962;DHT22;39868;53.398;6.564;2022-12-07T18:22:24;6.50;80.00